Laman API Video Percuma Terbaik

AVDBAPI.COM

Cari katalog, semak rekod, dan salin URL API bersih daripada papan pemuka pantas.

Telegram Join Our Telegram Community for Updates!
Today
0
Kemaskini Hari Ini
Censored
314141
Censored Videos
Total
474352
Total Videos

Senarai Video

Rekod terkini disusun mengikut masa kemas kini.

ID Nama CODE Kategori Dikemaskini API
271069 061519-942 Seperti Rama-rama ~ Soapland Kenderaan Dua Roda di Pink Street 8 ~ Nako Sudo, Kaho Morisaki 061519-942 Tanpa sensor 2025-08-29 20:56:30 API
271068 010118-198 Melatih Nadeshiko Menjadi Pelacur - Melatih Wanita Matang 50 Tahun yang Kotor 010118-198 Tanpa sensor 2025-08-29 20:56:20 API
271067 030717_494 Tokimeki ~ Payudara besar montok yang sangat nikmat untuk diramas ~ 030717_494 Tanpa sensor 2025-08-29 20:56:10 API
271066 FC2-PPV-1213947 [Tanpa Sensor] [Video Bocor] Miyuki Arisu FC2-PPV-1213947 Tanpa sensor 2025-08-29 20:56:00 API
271065 HEYZO-1999 Tiba-tiba Debut Jadi Bintang AV! HEYZO-1999 Tanpa sensor 2025-08-29 20:55:50 API
271064 063018-01 Melawat rumah lelaki! Khidmat tanpa had 063018-01 Tanpa sensor 2025-08-29 20:55:40 API
271063 H4610-ORI1704 Yurina Motoki Gadis 20 Tahun H4610-ORI1704 Tanpa sensor 2025-08-29 20:55:30 API
271062 C0930-KI180918 Gadis 19 Tahun Ukita Hikaru yang Menggiurkan C0930-KI180918 Tanpa sensor 2025-08-29 20:55:20 API
271061 H0930-KI190120 Ria Aoyama Gadis 24 Tahun H0930-KI190120 Tanpa sensor 2025-08-29 20:55:10 API
271060 K1297 Wanita Mangsa - K1297 Tanpa sensor 2025-08-29 20:55:00 API
271059 061819-943 Tak kira berapa kali pun buat, takkan habis! ~ Rorimanko yang kejang-kejang kepuasan dengan bicubic ~ Yuzuki 061819-943 Tanpa sensor 2025-08-29 20:54:50 API
271058 030817 Koleksi Model Seksi Saya Shirakawa 030817_495 Tanpa sensor 2025-08-29 20:54:40 API
271057 010118-199 Berjalan-jalan Dengan Mak Cik Seksi ~ Kenangan Indah Bersama Wanita Matang Cantik dan Penduduk Tempatan ~ 010118-199 Tanpa sensor 2025-08-29 20:54:30 API
271056 HEYZO-2000 Gonzo Yariman Perempuan Amatir Melacur Vol.2 HEYZO-2000 Tanpa sensor 2025-08-29 20:54:20 API
271055 C0930-KI180920 Kiyomi Nonaka, Wanita 24 Tahun C0930-KI180920 Tanpa sensor 2025-08-29 20:54:10 API
271054 H4610-KI191130 Hiroko Tono, 26 tahun H4610-KI191130 Tanpa sensor 2025-08-29 20:54:00 API
271053 FC2-PPV-1213833 [Bocoran Tanpa Sensor] Marina Ozawa Bocor: Pinggang Sempurna dan Payudara Besar Anugerah Tuhan FC2-PPV-1213833 Tanpa sensor 2025-08-29 20:53:50 API
271052 070318-01 Cara perempuan ini bekerja ~ Khemak aku yang sangat mudah basah ~ 070318-01 Tanpa sensor 2025-08-29 20:53:40 API
271051 031017_496 Aku mahu kau hancurkan aku! 031017_496 Tanpa sensor 2025-08-29 20:53:30 API
271050 061919-944 Buku Gambar Puki Minako Komukai 061919-944 Tanpa sensor 2025-08-29 20:53:20 API
271049 010118-197 Isteri jiran tanpa bra lalu di kawasan pembuangan sampah 010118-197 Tanpa sensor 2025-08-29 20:53:10 API
271047 H0930-KI190119 Koleksi Video Seks Mengikut Permintaan Paling Hot H0930-KI190119 Tanpa sensor 2025-08-29 20:52:50 API
271046 C0930-KI180923 Chiharu Moriya, 20 Tahun C0930-KI180923 Tanpa sensor 2025-08-29 20:52:40 API
271045 062119-945 Mabuk Mabuk ~ Air Muncrat Panas Semasa Mabuk Berat ~ Nana Ueyama 062119-945 Tanpa sensor 2025-08-29 20:52:30 API
271044 070518-01 Dah lama tak buat seks, saya rasa sangat ghairah 070518-01 Tanpa sensor 2025-08-29 20:52:20 API
271043 H4610-KI191203 Rie Tanaka, 23 tahun H4610-KI191203 Tanpa sensor 2025-08-29 20:52:10 API
271042 HEYZO-2001 Puaskan wanita miang yang sangat berahi! HEYZO-2001 Tanpa sensor 2025-08-29 20:52:00 API
271041 010318-202 Tubuh wanita yang paling seksi dan menggoda 010318-202 Tanpa sensor 2025-08-29 20:51:50 API
271040 H0930-KI190124 Kanae Takashiro Wanita Berusia 26 Tahun H0930-KI190124 Tanpa sensor 2025-08-29 20:51:40 API
271038 031117_497 Resume Bogel Honoka Orihara 031117_497 Tanpa sensor 2025-08-29 20:51:20 API
271037 062219-946 Nafsu Basah Seorang Janda Berduka ~ Saya Sangat Ingin Dipeluk ~ Saori Okumura 062219-946 Tanpa sensor 2025-08-29 20:51:10 API
271036 070718-01 Era Seragam 070718-01 Tanpa sensor 2025-08-29 20:51:00 API
271035 C0930-HITOZUMA1258 Kumi Yonezaki Wanita Cantik 29 Tahun C0930-HITOZUMA1258 Tanpa sensor 2025-08-29 20:50:50 API
271034 FC2-PPV-2166591 [Bukan penggambaran individu, gadis muda berwajah miang ditelanjangi uniformnya dan dikentot bogel, bocor] Saya cuma nak cakap ini. Gadis cantik berwajah miang ini pun ada badan yang mantap gila! Bahaya kalau kantoi FC2-PPV-2166591 Tanpa sensor 2025-08-29 20:50:40 API
271033 HEYZO-2002 Seks terikat dengan wanita berkahwin yang kemas HEYZO-2002 Tanpa sensor 2025-08-29 20:50:30 API
271032 H4610-TK0010 Hata Yurihana Berumur 20 Tahun H4610-TK0010 Tanpa sensor 2025-08-29 20:50:20 API
271031 K1298 Wanita Mangsa - K1298 Tanpa sensor 2025-08-29 20:50:10 API
271030 010318-200 Pendidikan Seks Nakal Si Ibu 010318-200 Tanpa sensor 2025-08-29 20:50:00 API
271029 H0930-ORI1522 Wanita Cantik Berusia 33 Tahun Nozomi Morikura H0930-ORI1522 Tanpa sensor 2025-08-29 20:49:50 API
271028 062519-947 Tak Ada Duit Langsung! Menuju Mexico! Gadis Cantik Menumpang Kenderaan Asuka Claire 062519-947 Tanpa sensor 2025-08-29 20:49:40 API
271027 C0930-KI180925 Shinobu Kawahara Wanita Berusia 28 Tahun C0930-KI180925 Tanpa sensor 2025-08-29 20:49:30 API
271026 031717_500 Mio Futaba Yang Seksi dan Menggoda 031717_500 Tanpa sensor 2025-08-29 20:49:20 API
271025 HEYZO-2003 Kenikmatan Urutan Erotik! ~ Bersama Rin Amane ~ HEYZO-2003 Tanpa sensor 2025-08-29 20:49:10 API
271024 071018-01 Melawat rumah lelaki! Cuba teka di mana kamu rasa nikmat 071018-01 Tanpa sensor 2025-08-29 20:49:00 API
271023 FC2-PPV-1197865 [Kebocoran Tanpa Sensor] Kebocoran Kojima (5) DV-1326 Sabun ultra mewah pelakon eksklusif Alice JAPAN Minami Kojima! FC2-PPV-1197865 Tanpa sensor 2025-08-29 20:48:50 API
271022 H4610-KI191207 Gold Pack Untuk Babe 20 Tahun H4610-KI191207 Tanpa sensor 2025-08-29 20:48:40 API
271021 K1299 Wanita Mangsa K1299 Tanpa sensor 2025-08-29 20:48:30 API
271020 010318-201 Rancangan ibu cantik melarikan diri daripada kemelesetan ekonomi 010318-201 Tanpa sensor 2025-08-29 20:48:20 API
271019 HEYZO-2004 Nikmati Tubuh Eromuchi yang Menggiurkan Ini Sepuas Hati HEYZO-2004 Tanpa sensor 2025-08-29 20:48:10 API
271018 C0930-KI180927 Terumi Maruyama Wanita Seksi Berusia 30 Tahun C0930-KI180927 Tanpa sensor 2025-08-29 20:48:00 API